Station: Launceston  

  Atmospheric Gas Attenuation - ITU Rec 676-11   ----------------- dB/100km -----------------
Date Time Temp RH % AH g/m3 Dew Point Wind Direction Speed kph Gust kph Barometer mB Rainfall Since 9am 24GHz 47GHz 76GHz 122GHz 134GHz 241GHz
08/05 12:30 17.4 43 6.37 4.7 17 28 1013.1 0 14.7 21.6 29.9 78.0 67.0 229.0
08/05 12:20 17.6 42 6.3 4.8 19 22 1013.1 0 14.6 21.4 29.6 77.1 66.1 225.6
08/05 12:10 17.3 41 6.04 4.2 15 19 1013.1 0 14.0 21.1 28.8 75.0 63.3 216.0
08/05 12:00 17.2 42 6.15 4.2 9 17 1013.1 0 14.3 21.3 29.2 76.1 64.7 220.7
08/05 11:50 16.6 42 5.93 3.9 9 13 1013.1 0 13.8 21.1 28.6 74.6 62.6 213.4
08/05 11:40 16.7 46 6.54 5 11 13 1013.1 0 15.1 22.0 30.7 80.3 69.6 238.0
08/05 11:30 16.8 46 6.58 5.1 19 30 1013.1 0 15.2 22.0 30.8 80.6 70.0 239.4
08/05 11:20 15.6 47 6.25 4.3 15 24 1013.1 0 14.5 21.8 30.1 78.6 67.2 229.2
08/05 11:10 16 44 5.99 3.7 30 32 1013.1 0 14.0 21.4 29.0 75.7 63.8 217.4
08/05 11:00 16.3 44 6.1 4 24 39 1013.1 0 14.2 21.4 29.3 76.5 64.8 221.1
08/05 10:50 16.5 45 6.32 4.5 19 22 1013.1 0 14.6 21.7 30.0 78.4 67.2 229.5
08/05 10:40 16.1 46 6.31 4.5 20 26 1013.1 0 14.6 21.8 30.1 78.7 67.4 230.3
08/05 10:30 16.1 48 6.58 5.1 13 26 1013.1 0 15.2 22.2 31.1 81.3 70.6 241.4
08/05 10:20 15.7 49 6.56 5 17 20 1013.1 0 15.2 22.2 31.2 81.5 70.7 241.8
08/05 10:10 15.6 48 6.38 4.6 11 17 1013.1 0 14.8 22.0 30.6 79.8 68.7 234.6
08/05 10:00 15.3 48 6.27 4.4 15 35 1013.1 0 14.6 21.9 30.3 79.1 67.6 230.9
08/05 09:50 15.2 52 6.75 5.4 11 19 1013.1 0 15.6 22.6 32.1 83.8 73.5 251.3
08/05 09:40 14.7 53 6.67 5.2 20 30 1013.1 0 15.4 22.7 32.0 83.6 73.0 249.5
08/05 09:30 14.3 56 6.88 5.7 11 17 1013.1 0 15.9 23.1 32.9 86.1 75.9 259.7
08/05 09:20 13.9 57 6.83 5.7 13 15 1013.1 0 15.8 23.1 32.9 86.0 75.7 258.9
08/05 09:10 13.2 63 7.23 6.3 6 6 1013.1 0 16.7 23.9 34.7 90.8 81.4 278.8
08/05 09:00 12.9 64 7.21 6.3 4 6 1013.1 0 16.7 23.9 34.7 90.9 81.4 278.9
08/05 08:50 12.2 66 7.12 6 6 6 1013.1 0 16.5 24.0 34.7 90.8 81.0 277.4
08/05 08:40 11.6 69 7.17 6.1 4 4 1013.1 0 16.6 24.2 35.2 92.0 82.3 281.7
08/05 08:30 11 69 6.91 5.5 4 4 1013.1 0 16.1 24.0 34.4 90.0 79.5 272.1
08/05 08:20 10.8 69 6.82 5.3 4 6 1013.1 0 15.9 23.9 34.1 89.3 78.6 268.7
08/05 08:10 10.7 73 7.17 6 0 0 1013.1 0 16.7 24.5 35.6 93.1 83.2 284.9
08/05 08:00 9.3 76 6.83 5.3 7 15 1013.1 0 16.0 24.3 34.8 91.1 80.2 274.3
08/05 07:50 9.1 74 6.57 4.7 15 19 1013.1 0 15.4 23.9 33.9 88.6 77.0 263.1
08/05 07:40 9.5 71 6.46 4.5 9 9 1013.1 0 15.2 23.7 33.3 87.0 75.2 256.8
08/05 07:30 9.1 73 6.48 4.5 13 17 1013.1 0 15.3 23.8 33.5 87.6 75.9 259.0
08/05 07:20 9.4 72 6.51 4.6 11 13 1013.1 0 15.3 23.8 33.5 87.6 76.0 259.4
08/05 07:10 9.4 72 6.51 4.6 9 11 1013.1 0 15.3 23.8 33.5 87.6 76.0 259.4
08/05 07:00 9.1 79 7.01 5.7 20 32 1013.1 0 16.4 24.6 35.6 93.3 82.8 283.3
08/05 06:50 8.6 87 7.48 6.5 22 28 1013.1 0 17.4 25.6 37.8 99.0 89.7 307.3
08/05 06:40 5.9 95 6.85 5.1 15 17 1013.1 0 16.2 25.3 36.4 95.4 84.1 287.4
08/05 06:30 5.3 94 6.52 4.4 7 9 1013.1 0 15.5 24.9 35.3 92.4 80.2 273.7
08/05 06:20 4.8 95 6.38 4 6 7 1013.1 0 15.2 24.8 35.0 91.5 78.8 268.7
08/05 06:10 4.1 92 5.89 3 6 7 1013.1 0 14.2 24.2 33.2 86.9 72.8 247.6
08/05 06:00 5.5 94 6.61 4.6 7 9 1013.1 0 15.7 25.0 35.6 93.2 81.3 277.3
08/05 05:50 4.9 94 6.35 4 7 7 1013.1 0 15.1 24.7 34.8 91.0 78.3 267.0
08/05 05:40 5.3 94 6.52 4.4 7 9 1013.1 0 15.5 24.9 35.3 92.4 80.2 273.7
08/05 05:30 5 94 6.39 4.1 4 6 1013.1 0 15.2 24.8 34.9 91.3 78.8 268.5
08/05 05:20 4.2 92 5.93 3 6 6 1013.1 0 14.3 24.2 33.4 87.2 73.3 249.2
08/05 05:10 4.7 93 6.2 3.6 0 0 1013.1 0 14.8 24.5 34.3 89.6 76.5 260.5
08/05 05:00 4.8 93 6.24 3.8 0 4 1013.1 0 14.9 24.6 34.4 89.9 76.9 262.0
08/05 04:50 4.3 91 5.91 2.9 2 4 1013.1 0 14.2 24.2 33.2 86.9 72.9 248.0
08/05 04:40 5.7 93 6.62 4.6 4 6 1013.1 0 15.7 24.9 35.6 93.1 81.2 277.1
08/05 04:30 5.8 94 6.74 4.9 6 9 1013.1 0 15.9 25.1 36.0 94.3 82.7 282.5
08/05 04:20 5.6 93 6.58 4.5 9 9 1013.1 0 15.6 24.9 35.4 92.7 80.7 275.5
08/05 04:10 5.8 93 6.67 4.7 2 2 1013.1 0 15.8 25.0 35.7 93.5 81.8 279.1
08/05 04:00 6 93 6.75 5 2 7 1013.1 0 16.0 25.1 36.0 94.1 82.6 282.3
08/05 03:50 6.7 94 7.15 5.8 2 4 1013.1 0 16.8 25.6 37.3 97.7 87.4 298.9
08/05 03:40 6.8 95 7.27 6 4 4 1013.1 0 17.1 25.7 37.8 99.0 88.9 304.3
08/05 03:30 5.9 94 6.78 5 6 7 1013.1 0 16.0 25.2 36.1 94.6 83.2 284.1
08/05 03:20 5.3 93 6.45 4.2 6 6 1013.1 0 15.3 24.8 35.0 91.7 79.3 270.4
08/05 03:10 6.4 94 7.01 5.5 4 6 1013.1 0 16.5 25.4 36.9 96.6 85.8 293.3
08/05 03:00 5.9 94 6.78 5 7 11 1013.1 0 16.0 25.2 36.1 94.6 83.2 284.1
08/05 02:50 6.5 95 7.13 5.7 11 13 1013.1 0 16.8 25.6 37.3 97.8 87.3 298.7
08/05 02:40 6.1 95 6.94 5.3 6 6 1013.1 0 16.4 25.4 36.7 96.1 85.1 291.0
08/05 02:30 5.9 94 6.78 5 4 9 1013.1 0 16.0 25.2 36.1 94.6 83.2 284.1
08/05 02:20 6.3 95 7.04 5.5 4 6 1013.1 0 16.6 25.5 37.0 97.0 86.3 295.1
08/05 02:10 5.7 95 6.76 4.9 11 15 1013.1 0 16.0 25.2 36.1 94.6 83.1 283.8
08/05 02:00 5 94 6.39 4.1 4 7 1013.1 0 15.2 24.8 34.9 91.3 78.8 268.5
08/05 01:50 5.4 94 6.56 4.5 2 2 1013.1 0 15.6 24.9 35.4 92.8 80.7 275.3
08/05 01:40 5.8 95 6.81 5 7 7 1013.1 0 16.1 25.2 36.3 95.1 83.7 285.9
08/05 01:30 5.3 94 6.52 4.4 2 6 1013.1 0 15.5 24.9 35.3 92.4 80.2 273.7
08/05 01:20 6.1 94 6.87 5.2 6 6 1013.1 0 16.2 25.3 36.4 95.4 84.2 287.7
08/05 01:10 6.2 94 6.92 5.3 6 6 1013.1 0 16.3 25.3 36.6 95.8 84.8 289.7
08/05 01:00 5.7 94 6.69 4.8 4 6 1013.1 0 15.8 25.1 35.9 93.8 82.1 280.5
08/05 00:50 5.8 93 6.67 4.7 2 2 1013.1 0 15.8 25.0 35.7 93.5 81.8 279.1
08/05 00:40 6.2 93 6.84 5.1 2 2 1013.1 0 16.1 25.2 36.2 94.9 83.7 285.9
08/05 00:30 6.3 93 6.89 5.3 2 4 1013.1 0 16.3 25.2 36.4 95.3 84.2 287.9
08/05 00:20 6.3 93 6.89 5.2 2 2 1013.1 0 16.3 25.2 36.4 95.3 84.2 287.9
08/05 00:10 6.4 93 6.93 5.3 2 2 1013.1 0 16.3 25.3 36.5 95.7 84.7 289.4
08/05 00:00 6.3 93 6.89 5.3 6 7 1013.1 0 16.3 25.2 36.4 95.3 84.2 287.9
07/05 23:50 5.7 91 6.48 4.3 7 7 1013.1 0 15.4 24.7 35.0 91.5 79.3 270.4
07/05 23:40 6.5 91 6.83 5.1 0 0 1013.1 0 16.1 25.1 36.1 94.4 83.2 284.3
07/05 23:30 6.3 90 6.67 4.8 2 4 1013.1 0 15.8 24.9 35.5 92.9 81.2 277.4
07/05 23:20 7.2 91 7.15 5.8 0 0 1013.1 0 16.8 25.4 37.1 97.1 86.8 297.0
07/05 23:10 7.3 89 7.04 5.7 0 0 1013.1 0 16.5 25.2 36.6 95.8 85.2 291.4
07/05 23:00 7.2 89 6.99 5.5 0 2 1013.1 0 16.4 25.1 36.4 95.3 84.6 289.3
07/05 22:50 7.7 88 7.14 5.8 2 4 1013.1 0 16.7 25.2 36.8 96.4 86.1 294.6
07/05 22:40 8.4 89 7.55 6.7 2 2 1013.1 0 17.6 25.7 38.2 100.0 90.9 311.5
07/05 22:30 8.2 88 7.37 6.3 6 9 1013.1 0 17.2 25.5 37.5 98.3 88.7 303.7
07/05 22:20 8.3 88 7.42 6.4 6 7 1013.1 0 17.3 25.5 37.7 98.7 89.2 305.7
07/05 22:10 8.2 86 7.21 6 7 7 1013.1 0 16.9 25.2 36.9 96.5 86.5 296.1
07/05 22:00 8.5 86 7.35 6.3 7 9 1013.1 0 17.2 25.4 37.3 97.7 88.1 301.5
07/05 21:50 8.7 85 7.35 6.3 6 7 1013.1 0 17.1 25.3 37.2 97.5 87.8 300.8
07/05 21:40 8.7 84 7.27 6.1 4 4 1013.1 0 17.0 25.2 36.9 96.6 86.7 297.0
07/05 21:30 8.7 84 7.27 6.2 9 15 1013.1 0 17.0 25.2 36.9 96.6 86.7 297.0
07/05 21:20 8.7 82 7.09 5.8 9 11 1013.1 0 16.6 24.9 36.1 94.6 84.3 288.5
07/05 21:10 8.8 82 7.14 6 11 13 1013.1 0 16.7 24.9 36.3 95.0 84.9 290.5
07/05 21:00 8.5 83 7.09 5.8 11 19 1013.1 0 16.6 24.9 36.2 94.9 84.5 289.3
07/05 20:50 8.4 82 6.96 5.5 9 11 1013.1 0 16.3 24.8 35.7 93.6 82.9 283.5
07/05 20:40 8.2 78 6.53 4.7 9 9 1013.1 0 15.4 24.1 34.1 89.2 77.4 264.2
07/05 20:30 8.6 77 6.62 4.8 13 19 1013.1 0 15.6 24.2 34.3 89.7 78.2 267.0
07/05 20:20 8.5 76 6.49 4.5 11 17 1013.1 0 15.3 24.0 33.8 88.4 76.6 261.4
07/05 20:10 8.7 76 6.58 4.7 9 11 1013.1 0 15.5 24.1 34.1 89.1 77.6 264.9
07/05 20:00 8.6 76 6.53 4.6 9 13 1013.1 0 15.4 24.0 33.9 88.7 77.0 262.9

Last Refresh: 08-May-2026 12:08:18

Bureau of Meteorology